createdAt,value
2019-05-01T13:49:49.800Z,98407.00
2019-05-01T13:52:34.091Z,98407.00
2019-05-01T13:55:08.231Z,98413.00
2019-05-01T13:57:49.723Z,98421.00
2019-05-01T14:00:28.616Z,98426.00
2019-05-01T14:03:02.581Z,98432.00
2019-05-01T14:05:35.512Z,98415.00
2019-05-01T14:08:19.361Z,98396.00
2019-05-01T14:11:02.326Z,98405.00
2019-05-01T14:13:41.809Z,98396.00
2019-05-01T14:16:16.765Z,98406.00
2019-05-01T14:18:53.886Z,98396.00
2019-05-01T14:21:32.351Z,98387.00
2019-05-01T14:24:13.617Z,98387.00
2019-05-01T14:26:53.371Z,98392.00
2019-05-01T14:29:30.267Z,98394.00
2019-05-01T14:32:03.872Z,98395.00
2019-05-01T14:34:37.633Z,98396.00
2019-05-01T14:37:29.064Z,98398.00
2019-05-01T14:39:52.470Z,98384.00
2019-05-01T14:42:30.916Z,98391.00
2019-05-01T14:45:11.415Z,98389.00
2019-05-01T14:47:49.756Z,98362.00
2019-05-01T14:50:25.519Z,98363.00
2019-05-01T14:53:06.223Z,98374.00
2019-05-01T14:55:41.069Z,98382.00
2019-05-01T14:58:21.301Z,98372.00
2019-05-01T15:01:01.868Z,98371.00
2019-05-01T15:03:35.506Z,98361.00
2019-05-01T15:06:13.128Z,98361.00
2019-05-01T15:08:49.104Z,98338.00
2019-05-01T15:11:28.155Z,98320.00
2019-05-01T15:14:14.089Z,98312.00
2019-05-01T15:17:06.631Z,98317.00
2019-05-01T15:19:55.571Z,98318.00
2019-05-01T15:22:27.917Z,98322.00
2019-05-01T15:25:02.449Z,98318.00
2019-05-01T15:27:49.745Z,98312.00
2019-05-01T15:30:24.584Z,98308.00
2019-05-01T15:33:01.536Z,98304.00
2019-05-01T15:35:36.360Z,98312.00
2019-05-01T15:38:09.685Z,98326.00
2019-05-01T15:40:46.668Z,98332.00
2019-05-01T15:43:31.209Z,98335.00
2019-05-01T15:54:08.632Z,98341.00
2019-05-01T15:56:41.613Z,98358.00
2019-05-01T15:59:18.041Z,98352.00
2019-05-01T16:04:48.318Z,98342.00
2019-05-01T16:07:23.518Z,98351.00
2019-05-01T16:09:56.892Z,98343.00
2019-05-01T16:12:38.897Z,98342.00
2019-05-01T16:15:14.431Z,98351.00
2019-05-01T16:17:48.194Z,98353.00
2019-05-01T16:20:22.238Z,98359.00
2019-05-01T16:22:57.216Z,98355.00
2019-05-01T16:25:32.555Z,98354.00
2019-05-01T16:28:06.486Z,98346.00
2019-05-01T16:30:43.357Z,98332.00
2019-05-01T16:33:17.903Z,98320.00
2019-05-01T16:35:54.157Z,98309.00
2019-05-01T16:38:36.121Z,98299.00
2019-05-01T16:41:14.429Z,98293.00
2019-05-01T16:43:52.730Z,98284.00
2019-05-01T16:52:28.710Z,98279.00
2019-05-01T16:55:06.077Z,98279.00
2019-05-01T16:57:43.711Z,98272.00
2019-05-01T17:00:27.202Z,98267.00
2019-05-01T17:03:02.197Z,98265.00
2019-05-01T17:05:42.745Z,98299.00
2019-05-01T17:08:18.145Z,98309.00
2019-05-01T17:10:54.532Z,98297.00
2019-05-01T17:13:35.698Z,98301.00
2019-05-01T17:16:09.593Z,98282.00
2019-05-01T17:18:47.763Z,98296.00
2019-05-01T17:21:23.604Z,98297.00
2019-05-01T17:23:58.418Z,98286.00
2019-05-01T17:26:30.414Z,98305.00
2019-05-01T17:29:02.594Z,98298.00
2019-05-01T17:31:36.659Z,98299.00
2019-05-01T17:34:09.778Z,98306.00
2019-05-01T17:36:47.656Z,98315.00
2019-05-01T17:39:24.673Z,98304.00
2019-05-01T17:42:01.665Z,98319.00
2019-05-01T17:44:42.686Z,98321.00
2019-05-01T17:47:22.437Z,98328.00
2019-05-01T17:49:55.665Z,98326.00
2019-05-01T17:52:30.732Z,98332.00
2019-05-01T17:55:07.664Z,98324.00
2019-05-01T17:57:47.371Z,98327.00
2019-05-01T18:00:41.377Z,98326.00
2019-05-01T18:03:17.207Z,98336.00
2019-05-01T18:06:07.828Z,98332.00
2019-05-01T18:08:43.020Z,98326.00
2019-05-01T18:11:16.830Z,98329.00
2019-05-01T18:13:49.571Z,98330.00
2019-05-01T18:16:24.823Z,98335.00
2019-05-01T18:18:58.610Z,98335.00
2019-05-01T18:21:31.082Z,98335.00
2019-05-01T18:24:23.035Z,98337.00
2019-05-01T18:27:07.220Z,98340.00
2019-05-01T18:29:45.405Z,98339.00
2019-05-01T18:32:25.141Z,98352.00
2019-05-01T18:34:58.041Z,98350.00
2019-05-01T18:37:46.188Z,98347.00
2019-05-01T18:40:20.824Z,98348.00
2019-05-01T18:42:53.571Z,98350.00
2019-05-01T18:45:49.469Z,98357.00
2019-05-01T18:48:24.074Z,98359.00
2019-05-01T18:50:59.672Z,98361.00
2019-05-01T18:53:41.560Z,98359.00
2019-05-01T18:56:18.813Z,98354.00
2019-05-01T18:58:58.492Z,98368.00
2019-05-01T19:01:34.140Z,98359.00
2019-05-01T19:04:10.647Z,98367.00
2019-05-01T19:06:48.344Z,98369.00
2019-05-01T19:09:29.927Z,98368.00
2019-05-01T19:12:48.396Z,98366.00
2019-05-01T19:15:26.956Z,98377.00
2019-05-01T19:18:08.338Z,98383.00
2019-05-01T19:20:42.920Z,98382.00
2019-05-01T19:23:52.118Z,98379.00
2019-05-01T19:26:30.019Z,98394.00
2019-05-01T19:29:07.703Z,98390.00
2019-05-01T19:31:42.676Z,98397.00
2019-05-01T19:34:19.130Z,98398.00
2019-05-01T19:38:05.932Z,98397.00
2019-05-01T19:40:44.104Z,98398.00
2019-05-01T19:43:21.358Z,98402.00
2019-05-01T19:45:54.476Z,98400.00
2019-05-01T19:48:27.831Z,98404.00
2019-05-01T19:51:09.201Z,98410.00
2019-05-01T19:53:51.748Z,98404.00
2019-05-01T19:56:30.175Z,98414.00
2019-05-01T19:59:07.432Z,98404.00
2019-05-01T20:01:44.606Z,98415.00
2019-05-01T20:04:18.437Z,98416.00
2019-05-01T20:06:55.227Z,98411.00
2019-05-01T20:09:35.205Z,98404.00
2019-05-01T20:12:18.430Z,98420.00
2019-05-01T20:14:55.408Z,98418.00
2019-05-01T20:17:31.743Z,98412.00
2019-05-01T20:20:11.352Z,98420.00
2019-05-01T20:22:48.116Z,98413.00
2019-05-01T20:25:23.065Z,98409.00
2019-05-01T20:27:58.540Z,98417.00
2019-05-01T20:30:33.637Z,98405.00
2019-05-01T20:33:10.170Z,98413.00
2019-05-01T20:35:50.098Z,98414.00
2019-05-01T20:38:24.763Z,98399.00
2019-05-01T20:41:10.215Z,98402.00
2019-05-01T20:43:46.804Z,98400.00
2019-05-01T20:46:26.246Z,98388.00
2019-05-01T20:49:06.458Z,98400.00
2019-05-01T20:51:48.630Z,98400.00
2019-05-01T20:54:23.168Z,98409.00
2019-05-01T20:57:13.503Z,98393.00
2019-05-01T20:59:54.882Z,98395.00
2019-05-01T21:02:29.370Z,98395.00
2019-05-01T21:05:15.598Z,98402.00
2019-05-01T21:07:52.035Z,98391.00
2019-05-01T21:10:29.928Z,98402.00
2019-05-01T21:13:03.759Z,98388.00
2019-05-01T21:15:36.050Z,98397.00
2019-05-01T21:18:08.739Z,98386.00
2019-05-01T21:20:44.328Z,98398.00
2019-05-01T21:23:18.619Z,98400.00
2019-05-01T21:25:53.838Z,98393.00
2019-05-01T21:28:27.613Z,98393.00
2019-05-01T21:30:59.905Z,98386.00
2019-05-01T21:33:34.139Z,98399.00
2019-05-01T21:36:08.452Z,98385.00
2019-05-01T21:38:42.882Z,98396.00
2019-05-01T21:41:15.041Z,98387.00
2019-05-01T21:43:52.956Z,98378.00
2019-05-01T21:46:25.032Z,98375.00
2019-05-01T21:49:02.645Z,98378.00
2019-05-01T21:51:37.084Z,98381.00
2019-05-01T21:54:20.536Z,98379.00
2019-05-01T21:56:53.705Z,98369.00
2019-05-01T21:59:39.797Z,98371.00
2019-05-01T22:02:14.711Z,98369.00
2019-05-01T22:04:49.663Z,98373.00
2019-05-01T22:07:27.839Z,98377.00
2019-05-01T22:10:02.841Z,98371.00
2019-05-01T22:12:35.206Z,98359.00
2019-05-01T22:15:13.406Z,98366.00
2019-05-01T22:17:58.434Z,98361.00
2019-05-01T22:20:49.774Z,98358.00
2019-05-01T22:23:31.041Z,98359.00
2019-05-01T22:26:09.037Z,98343.00
2019-05-01T22:28:58.966Z,98341.00
2019-05-01T22:31:47.798Z,98342.00
2019-05-01T22:34:46.042Z,98335.00
2019-05-01T22:37:20.895Z,98333.00
2019-05-01T22:39:57.062Z,98329.00
2019-05-01T22:42:41.013Z,98325.00
2019-05-01T22:45:31.543Z,98333.00
2019-05-01T22:48:12.563Z,98329.00
2019-05-01T22:50:48.796Z,98318.00
2019-05-01T22:53:23.161Z,98331.00
2019-05-01T22:55:57.207Z,98321.00
2019-05-01T22:58:32.909Z,98329.00
2019-05-01T23:01:13.176Z,98325.00
2019-05-01T23:03:57.471Z,98323.00
2019-05-01T23:06:32.472Z,98327.00
2019-05-01T23:09:06.405Z,98331.00
2019-05-01T23:11:40.407Z,98332.00
2019-05-01T23:14:13.633Z,98328.00
2019-05-01T23:16:49.553Z,98327.00
2019-05-01T23:19:27.320Z,98325.00
2019-05-01T23:21:58.415Z,98321.00
2019-05-01T23:24:32.258Z,98318.00
2019-05-01T23:27:04.362Z,98318.00
2019-05-01T23:29:37.974Z,98315.00
2019-05-01T23:32:12.725Z,98317.00
2019-05-01T23:34:47.211Z,98311.00
2019-05-01T23:37:21.047Z,98307.00
2019-05-01T23:39:58.738Z,98305.00
2019-05-01T23:42:32.488Z,98301.00
2019-05-01T23:45:11.893Z,98289.00
2019-05-01T23:47:58.301Z,98285.00
2019-05-01T23:50:34.831Z,98293.00
2019-05-01T23:53:13.904Z,98283.00
2019-05-01T23:55:49.439Z,98290.00
2019-05-01T23:58:23.738Z,98281.00
